sensor_id;sensor_type;location;lat;lon;timestamp;temperature;humidity
52669;DHT22;59898;52.786;6.892;2023-02-22T00:01:02;8.50;99.90
52669;DHT22;59898;52.786;6.892;2023-02-22T00:04:27;8.50;99.90
52669;DHT22;59898;52.786;6.892;2023-02-22T00:07:48;8.50;99.90
52669;DHT22;59898;52.786;6.892;2023-02-22T00:11:09;8.50;99.90
52669;DHT22;59898;52.786;6.892;2023-02-22T00:14:30;8.50;99.90
52669;DHT22;59898;52.786;6.892;2023-02-22T00:17:50;8.50;99.90
52669;DHT22;59898;52.786;6.892;2023-02-22T00:21:12;8.50;99.90
52669;DHT22;59898;52.786;6.892;2023-02-22T00:24:33;8.50;99.90
52669;DHT22;59898;52.786;6.892;2023-02-22T00:27:55;8.50;99.90
52669;DHT22;59898;52.786;6.892;2023-02-22T00:31:16;8.50;99.90
52669;DHT22;59898;52.786;6.892;2023-02-22T00:34:37;8.50;99.90
52669;DHT22;59898;52.786;6.892;2023-02-22T00:37:59;8.50;99.90
52669;DHT22;59898;52.786;6.892;2023-02-22T00:41:20;8.50;99.90
52669;DHT22;59898;52.786;6.892;2023-02-22T00:44:41;8.50;99.90
52669;DHT22;59898;52.786;6.892;2023-02-22T00:48:03;8.50;99.90
52669;DHT22;59898;52.786;6.892;2023-02-22T00:51:25;8.70;99.90
52669;DHT22;59898;52.786;6.892;2023-02-22T00:54:46;8.50;99.90
52669;DHT22;59898;52.786;6.892;2023-02-22T00:58:07;8.50;99.90
52669;DHT22;59898;52.786;6.892;2023-02-22T01:01:29;8.50;99.90
52669;DHT22;59898;52.786;6.892;2023-02-22T01:04:49;8.50;99.90
52669;DHT22;59898;52.786;6.892;2023-02-22T01:08:12;8.50;99.90
52669;DHT22;59898;52.786;6.892;2023-02-22T01:11:33;8.40;99.90
52669;DHT22;59898;52.786;6.892;2023-02-22T01:14:54;8.40;99.90
52669;DHT22;59898;52.786;6.892;2023-02-22T01:18:17;8.40;99.90
52669;DHT22;59898;52.786;6.892;2023-02-22T01:21:41;8.40;99.90
52669;DHT22;59898;52.786;6.892;2023-02-22T01:25:03;8.40;99.90
52669;DHT22;59898;52.786;6.892;2023-02-22T01:28:25;8.40;99.90
52669;DHT22;59898;52.786;6.892;2023-02-22T01:31:51;8.40;99.90
52669;DHT22;59898;52.786;6.892;2023-02-22T01:35:17;8.40;99.90
52669;DHT22;59898;52.786;6.892;2023-02-22T01:38:38;8.40;99.90
52669;DHT22;59898;52.786;6.892;2023-02-22T01:41:59;8.40;99.90
52669;DHT22;59898;52.786;6.892;2023-02-22T01:48:59;8.40;99.90
52669;DHT22;59898;52.786;6.892;2023-02-22T01:52:20;8.40;99.90
52669;DHT22;59898;52.786;6.892;2023-02-22T01:55:43;8.40;99.90
52669;DHT22;59898;52.786;6.892;2023-02-22T01:59:09;8.40;99.90
52669;DHT22;59898;52.786;6.892;2023-02-22T02:02:31;8.40;99.90
52669;DHT22;59898;52.786;6.892;2023-02-22T02:05:52;8.40;99.90
52669;DHT22;59898;52.786;6.892;2023-02-22T02:09:31;8.40;99.90
52669;DHT22;59898;52.786;6.892;2023-02-22T02:12:53;8.40;99.90
52669;DHT22;59898;52.786;6.892;2023-02-22T02:16:14;8.40;99.90
52669;DHT22;59898;52.786;6.892;2023-02-22T02:20:02;8.30;99.90
52669;DHT22;59898;52.786;6.892;2023-02-22T02:27:21;8.30;99.90
52669;DHT22;59898;52.786;6.892;2023-02-22T02:41:31;8.30;99.90
52669;DHT22;59898;52.786;6.892;2023-02-22T02:44:59;8.30;99.90
52669;DHT22;59898;52.786;6.892;2023-02-22T02:48:25;8.30;99.90
52669;DHT22;59898;52.786;6.892;2023-02-22T02:51:52;8.30;99.90
52669;DHT22;59898;52.786;6.892;2023-02-22T02:55:15;8.40;99.90
52669;DHT22;59898;52.786;6.892;2023-02-22T02:58:46;8.30;99.90
52669;DHT22;59898;52.786;6.892;2023-02-22T03:13:57;8.30;99.90
52669;DHT22;59898;52.786;6.892;2023-02-22T03:24:46;8.30;99.90
52669;DHT22;59898;52.786;6.892;2023-02-22T03:28:17;8.30;99.90
52669;DHT22;59898;52.786;6.892;2023-02-22T03:31:43;8.30;99.90
52669;DHT22;59898;52.786;6.892;2023-02-22T03:35:08;8.30;99.90
52669;DHT22;59898;52.786;6.892;2023-02-22T03:38:32;8.30;99.90
52669;DHT22;59898;52.786;6.892;2023-02-22T03:41:59;8.20;99.90
52669;DHT22;59898;52.786;6.892;2023-02-22T03:45:24;8.20;99.90
52669;DHT22;59898;52.786;6.892;2023-02-22T03:52:12;8.30;99.90
52669;DHT22;59898;52.786;6.892;2023-02-22T03:55:33;8.20;99.90
52669;DHT22;59898;52.786;6.892;2023-02-22T03:58:54;8.20;99.90
52669;DHT22;59898;52.786;6.892;2023-02-22T04:02:15;8.20;99.90
52669;DHT22;59898;52.786;6.892;2023-02-22T04:05:38;8.20;99.90
52669;DHT22;59898;52.786;6.892;2023-02-22T04:08:59;8.20;99.90
52669;DHT22;59898;52.786;6.892;2023-02-22T04:12:19;8.20;99.90
52669;DHT22;59898;52.786;6.892;2023-02-22T04:15:40;8.20;99.90
52669;DHT22;59898;52.786;6.892;2023-02-22T04:19:01;8.20;99.90
52669;DHT22;59898;52.786;6.892;2023-02-22T04:22:21;8.20;99.90
52669;DHT22;59898;52.786;6.892;2023-02-22T04:25:42;8.20;99.90
52669;DHT22;59898;52.786;6.892;2023-02-22T04:29:03;8.10;99.90
52669;DHT22;59898;52.786;6.892;2023-02-22T04:32:24;8.10;99.90
52669;DHT22;59898;52.786;6.892;2023-02-22T04:35:44;8.10;99.90
52669;DHT22;59898;52.786;6.892;2023-02-22T04:39:05;8.20;99.90
52669;DHT22;59898;52.786;6.892;2023-02-22T04:42:26;8.10;99.90
52669;DHT22;59898;52.786;6.892;2023-02-22T04:45:47;8.10;99.90
52669;DHT22;59898;52.786;6.892;2023-02-22T04:49:08;8.10;99.90
52669;DHT22;59898;52.786;6.892;2023-02-22T04:52:28;8.10;99.90
52669;DHT22;59898;52.786;6.892;2023-02-22T04:55:49;8.10;99.90
52669;DHT22;59898;52.786;6.892;2023-02-22T04:59:10;8.10;99.90
52669;DHT22;59898;52.786;6.892;2023-02-22T05:02:31;8.10;99.90
52669;DHT22;59898;52.786;6.892;2023-02-22T05:05:52;8.10;99.90
52669;DHT22;59898;52.786;6.892;2023-02-22T05:09:13;8.10;99.90
52669;DHT22;59898;52.786;6.892;2023-02-22T05:12:34;8.10;99.90
52669;DHT22;59898;52.786;6.892;2023-02-22T05:15:55;8.00;99.90
52669;DHT22;59898;52.786;6.892;2023-02-22T05:19:16;8.00;99.90
52669;DHT22;59898;52.786;6.892;2023-02-22T05:22:37;8.00;99.90
52669;DHT22;59898;52.786;6.892;2023-02-22T05:25:58;8.00;99.90
52669;DHT22;59898;52.786;6.892;2023-02-22T05:29:19;8.10;99.90
52669;DHT22;59898;52.786;6.892;2023-02-22T05:32:40;8.00;99.90
52669;DHT22;59898;52.786;6.892;2023-02-22T05:36:01;8.00;99.90
52669;DHT22;59898;52.786;6.892;2023-02-22T05:39:22;8.00;99.90
52669;DHT22;59898;52.786;6.892;2023-02-22T05:42:42;8.00;99.90
52669;DHT22;59898;52.786;6.892;2023-02-22T05:46:03;8.00;99.90
52669;DHT22;59898;52.786;6.892;2023-02-22T05:49:24;8.00;99.90
52669;DHT22;59898;52.786;6.892;2023-02-22T05:52:46;8.00;99.90
52669;DHT22;59898;52.786;6.892;2023-02-22T05:56:07;7.90;99.90
52669;DHT22;59898;52.786;6.892;2023-02-22T05:59:28;7.90;99.90
52669;DHT22;59898;52.786;6.892;2023-02-22T06:03:01;7.90;99.90
52669;DHT22;59898;52.786;6.892;2023-02-22T06:06:22;7.90;99.90
52669;DHT22;59898;52.786;6.892;2023-02-22T06:09:43;7.90;99.90
52669;DHT22;59898;52.786;6.892;2023-02-22T06:13:05;7.90;99.90
52669;DHT22;59898;52.786;6.892;2023-02-22T06:16:26;7.90;99.90
52669;DHT22;59898;52.786;6.892;2023-02-22T06:19:46;7.80;99.90
52669;DHT22;59898;52.786;6.892;2023-02-22T06:23:07;7.90;99.90
52669;DHT22;59898;52.786;6.892;2023-02-22T06:26:28;7.80;99.90
52669;DHT22;59898;52.786;6.892;2023-02-22T06:29:48;7.80;99.90
52669;DHT22;59898;52.786;6.892;2023-02-22T06:33:10;7.70;99.90
52669;DHT22;59898;52.786;6.892;2023-02-22T06:36:30;7.70;99.90
52669;DHT22;59898;52.786;6.892;2023-02-22T06:39:51;7.60;99.90
52669;DHT22;59898;52.786;6.892;2023-02-22T06:43:12;7.60;99.90
52669;DHT22;59898;52.786;6.892;2023-02-22T06:46:32;7.60;99.90
52669;DHT22;59898;52.786;6.892;2023-02-22T06:49:55;7.60;99.90
52669;DHT22;59898;52.786;6.892;2023-02-22T06:53:16;7.60;99.90
52669;DHT22;59898;52.786;6.892;2023-02-22T06:56:36;7.50;99.90
52669;DHT22;59898;52.786;6.892;2023-02-22T06:59:57;7.50;99.90
52669;DHT22;59898;52.786;6.892;2023-02-22T07:03:18;7.50;99.90
52669;DHT22;59898;52.786;6.892;2023-02-22T07:06:47;7.40;99.90
52669;DHT22;59898;52.786;6.892;2023-02-22T07:10:15;7.40;99.90
52669;DHT22;59898;52.786;6.892;2023-02-22T07:13:36;7.40;99.90
52669;DHT22;59898;52.786;6.892;2023-02-22T07:16:56;7.40;99.90
52669;DHT22;59898;52.786;6.892;2023-02-22T07:20:18;7.40;99.90
52669;DHT22;59898;52.786;6.892;2023-02-22T07:23:39;7.40;99.90
52669;DHT22;59898;52.786;6.892;2023-02-22T07:27:00;7.40;99.90
52669;DHT22;59898;52.786;6.892;2023-02-22T07:30:24;7.40;99.90
52669;DHT22;59898;52.786;6.892;2023-02-22T07:33:46;7.40;99.90
52669;DHT22;59898;52.786;6.892;2023-02-22T07:37:07;7.40;99.90
52669;DHT22;59898;52.786;6.892;2023-02-22T07:40:28;7.40;99.90
52669;DHT22;59898;52.786;6.892;2023-02-22T07:43:48;7.50;99.90
52669;DHT22;59898;52.786;6.892;2023-02-22T07:47:09;7.50;99.90
52669;DHT22;59898;52.786;6.892;2023-02-22T07:50:33;7.50;99.90
52669;DHT22;59898;52.786;6.892;2023-02-22T07:53:54;7.50;99.90
52669;DHT22;59898;52.786;6.892;2023-02-22T07:57:14;7.50;99.90
52669;DHT22;59898;52.786;6.892;2023-02-22T08:00:37;7.40;99.90
52669;DHT22;59898;52.786;6.892;2023-02-22T08:03:59;7.40;99.90
52669;DHT22;59898;52.786;6.892;2023-02-22T08:07:20;7.40;99.90
52669;DHT22;59898;52.786;6.892;2023-02-22T08:10:41;7.40;99.90
52669;DHT22;59898;52.786;6.892;2023-02-22T08:14:02;7.50;99.90
52669;DHT22;59898;52.786;6.892;2023-02-22T08:17:22;7.50;99.90
52669;DHT22;59898;52.786;6.892;2023-02-22T08:20:45;7.40;99.90
52669;DHT22;59898;52.786;6.892;2023-02-22T08:24:06;7.40;99.90
52669;DHT22;59898;52.786;6.892;2023-02-22T08:27:28;7.30;99.90
52669;DHT22;59898;52.786;6.892;2023-02-22T08:30:50;7.40;99.90
52669;DHT22;59898;52.786;6.892;2023-02-22T08:34:11;7.40;99.90
52669;DHT22;59898;52.786;6.892;2023-02-22T08:37:31;7.30;99.90
52669;DHT22;59898;52.786;6.892;2023-02-22T08:40:52;7.30;99.90
52669;DHT22;59898;52.786;6.892;2023-02-22T08:44:13;7.40;99.90
52669;DHT22;59898;52.786;6.892;2023-02-22T08:47:34;7.30;99.90
52669;DHT22;59898;52.786;6.892;2023-02-22T08:50:54;7.20;99.90
52669;DHT22;59898;52.786;6.892;2023-02-22T08:54:15;7.10;99.90
52669;DHT22;59898;52.786;6.892;2023-02-22T08:57:37;7.10;99.90
52669;DHT22;59898;52.786;6.892;2023-02-22T09:00:58;7.10;99.90
52669;DHT22;59898;52.786;6.892;2023-02-22T09:04:19;7.10;99.90
52669;DHT22;59898;52.786;6.892;2023-02-22T09:07:40;7.00;99.90
52669;DHT22;59898;52.786;6.892;2023-02-22T09:11:01;6.90;99.90
52669;DHT22;59898;52.786;6.892;2023-02-22T09:14:22;6.80;99.90
52669;DHT22;59898;52.786;6.892;2023-02-22T09:17:43;6.80;99.90
52669;DHT22;59898;52.786;6.892;2023-02-22T09:21:04;7.00;99.90
52669;DHT22;59898;52.786;6.892;2023-02-22T09:24:25;6.80;99.90
52669;DHT22;59898;52.786;6.892;2023-02-22T09:27:51;6.90;99.90
52669;DHT22;59898;52.786;6.892;2023-02-22T09:31:12;6.90;99.90
52669;DHT22;59898;52.786;6.892;2023-02-22T09:34:32;6.90;99.90
52669;DHT22;59898;52.786;6.892;2023-02-22T09:37:57;6.90;99.90
52669;DHT22;59898;52.786;6.892;2023-02-22T09:41:24;6.90;99.90
52669;DHT22;59898;52.786;6.892;2023-02-22T09:48:16;6.90;99.90
52669;DHT22;59898;52.786;6.892;2023-02-22T09:51:44;6.90;99.90
52669;DHT22;59898;52.786;6.892;2023-02-22T09:58:48;7.00;99.90
52669;DHT22;59898;52.786;6.892;2023-02-22T10:02:15;6.90;99.90
52669;DHT22;59898;52.786;6.892;2023-02-22T10:05:41;6.90;99.90
52669;DHT22;59898;52.786;6.892;2023-02-22T10:09:04;6.90;99.90
52669;DHT22;59898;52.786;6.892;2023-02-22T10:12:29;7.00;99.90
52669;DHT22;59898;52.786;6.892;2023-02-22T10:15:58;7.10;99.90
52669;DHT22;59898;52.786;6.892;2023-02-22T10:26:19;7.10;99.90
52669;DHT22;59898;52.786;6.892;2023-02-22T10:29:45;7.10;99.90
52669;DHT22;59898;52.786;6.892;2023-02-22T10:36:34;7.20;99.90
52669;DHT22;59898;52.786;6.892;2023-02-22T10:43:32;7.30;99.90
52669;DHT22;59898;52.786;6.892;2023-02-22T10:46:53;7.30;99.90
52669;DHT22;59898;52.786;6.892;2023-02-22T10:50:14;7.30;99.90
52669;DHT22;59898;52.786;6.892;2023-02-22T10:53:36;7.30;99.90
52669;DHT22;59898;52.786;6.892;2023-02-22T10:57:00;7.30;99.90
52669;DHT22;59898;52.786;6.892;2023-02-22T11:00:33;7.30;99.90
52669;DHT22;59898;52.786;6.892;2023-02-22T11:04:01;7.40;99.90
52669;DHT22;59898;52.786;6.892;2023-02-22T11:07:27;7.40;99.90
52669;DHT22;59898;52.786;6.892;2023-02-22T11:10:53;7.40;99.90
52669;DHT22;59898;52.786;6.892;2023-02-22T11:14:28;7.40;99.90
52669;DHT22;59898;52.786;6.892;2023-02-22T11:17:51;7.40;99.90
52669;DHT22;59898;52.786;6.892;2023-02-22T11:21:20;7.50;99.90
52669;DHT22;59898;52.786;6.892;2023-02-22T11:24:54;7.50;99.90
52669;DHT22;59898;52.786;6.892;2023-02-22T11:28:26;7.50;99.90
52669;DHT22;59898;52.786;6.892;2023-02-22T11:31:50;7.60;99.90
52669;DHT22;59898;52.786;6.892;2023-02-22T11:35:39;7.60;99.90
52669;DHT22;59898;52.786;6.892;2023-02-22T11:39:30;7.60;99.90
52669;DHT22;59898;52.786;6.892;2023-02-22T11:43:08;7.70;99.90
52669;DHT22;59898;52.786;6.892;2023-02-22T11:46:34;7.70;99.90
52669;DHT22;59898;52.786;6.892;2023-02-22T11:49:55;7.80;99.90
52669;DHT22;59898;52.786;6.892;2023-02-22T12:00:57;7.80;99.90
52669;DHT22;59898;52.786;6.892;2023-02-22T12:04:22;7.80;99.90
52669;DHT22;59898;52.786;6.892;2023-02-22T12:08:24;7.80;99.90
52669;DHT22;59898;52.786;6.892;2023-02-22T12:16:02;7.80;99.90
52669;DHT22;59898;52.786;6.892;2023-02-22T12:19:26;7.80;99.90
52669;DHT22;59898;52.786;6.892;2023-02-22T12:23:02;7.80;99.90
52669;DHT22;59898;52.786;6.892;2023-02-22T12:33:28;7.80;99.90
52669;DHT22;59898;52.786;6.892;2023-02-22T12:41:35;7.90;99.90
52669;DHT22;59898;52.786;6.892;2023-02-22T12:44:53;7.90;99.90
52669;DHT22;59898;52.786;6.892;2023-02-22T12:48:21;7.90;99.90
52669;DHT22;59898;52.786;6.892;2023-02-22T12:55:23;8.00;99.90
52669;DHT22;59898;52.786;6.892;2023-02-22T12:58:56;8.00;99.90
52669;DHT22;59898;52.786;6.892;2023-02-22T13:02:29;8.10;99.90
52669;DHT22;59898;52.786;6.892;2023-02-22T13:13:06;8.10;99.90
52669;DHT22;59898;52.786;6.892;2023-02-22T13:17:20;8.20;99.90
52669;DHT22;59898;52.786;6.892;2023-02-22T13:20:25;8.30;99.90
52669;DHT22;59898;52.786;6.892;2023-02-22T13:23:53;8.40;99.90
52669;DHT22;59898;52.786;6.892;2023-02-22T13:27:31;8.50;99.90
52669;DHT22;59898;52.786;6.892;2023-02-22T13:38:24;8.60;99.90
52669;DHT22;59898;52.786;6.892;2023-02-22T13:52:30;9.10;99.90
52669;DHT22;59898;52.786;6.892;2023-02-22T13:55:55;9.00;99.90
52669;DHT22;59898;52.786;6.892;2023-02-22T13:59:36;9.20;99.90
52669;DHT22;59898;52.786;6.892;2023-02-22T14:06:36;9.30;99.90
52669;DHT22;59898;52.786;6.892;2023-02-22T14:09:57;9.30;99.90
52669;DHT22;59898;52.786;6.892;2023-02-22T14:13:23;9.40;99.90
52669;DHT22;59898;52.786;6.892;2023-02-22T14:17:24;9.50;99.90
52669;DHT22;59898;52.786;6.892;2023-02-22T14:20:45;9.50;99.90
52669;DHT22;59898;52.786;6.892;2023-02-22T14:24:11;9.50;99.90
52669;DHT22;59898;52.786;6.892;2023-02-22T14:27:40;9.60;99.90
52669;DHT22;59898;52.786;6.892;2023-02-22T14:31:13;9.60;99.90
52669;DHT22;59898;52.786;6.892;2023-02-22T14:34:55;9.60;99.90
52669;DHT22;59898;52.786;6.892;2023-02-22T14:38:20;9.60;99.90
52669;DHT22;59898;52.786;6.892;2023-02-22T14:42:05;9.60;99.90
52669;DHT22;59898;52.786;6.892;2023-02-22T14:45:28;9.60;99.90
52669;DHT22;59898;52.786;6.892;2023-02-22T14:48:59;9.60;99.90
52669;DHT22;59898;52.786;6.892;2023-02-22T14:52:24;9.60;99.90
52669;DHT22;59898;52.786;6.892;2023-02-22T14:55:50;9.60;99.90
52669;DHT22;59898;52.786;6.892;2023-02-22T14:59:20;9.70;99.90
52669;DHT22;59898;52.786;6.892;2023-02-22T15:02:41;9.70;99.90
52669;DHT22;59898;52.786;6.892;2023-02-22T15:06:20;9.70;99.90
52669;DHT22;59898;52.786;6.892;2023-02-22T15:09:41;9.70;99.90
52669;DHT22;59898;52.786;6.892;2023-02-22T15:13:25;9.80;99.90
52669;DHT22;59898;52.786;6.892;2023-02-22T15:16:49;9.70;99.90
52669;DHT22;59898;52.786;6.892;2023-02-22T15:20:14;9.80;99.90
52669;DHT22;59898;52.786;6.892;2023-02-22T15:23:42;9.80;99.90
52669;DHT22;59898;52.786;6.892;2023-02-22T15:27:05;9.80;99.90
52669;DHT22;59898;52.786;6.892;2023-02-22T15:30:29;9.80;99.90
52669;DHT22;59898;52.786;6.892;2023-02-22T15:33:52;9.80;99.90
52669;DHT22;59898;52.786;6.892;2023-02-22T15:37:23;9.80;99.90
52669;DHT22;59898;52.786;6.892;2023-02-22T15:40:45;9.90;99.90
52669;DHT22;59898;52.786;6.892;2023-02-22T15:44:10;9.90;99.90
52669;DHT22;59898;52.786;6.892;2023-02-22T15:47:31;10.00;99.90
52669;DHT22;59898;52.786;6.892;2023-02-22T15:51:05;10.00;99.90
52669;DHT22;59898;52.786;6.892;2023-02-22T15:54:27;10.00;99.90
52669;DHT22;59898;52.786;6.892;2023-02-22T15:57:47;10.10;99.90
52669;DHT22;59898;52.786;6.892;2023-02-22T16:01:11;10.10;99.90
52669;DHT22;59898;52.786;6.892;2023-02-22T16:04:33;10.00;99.90
52669;DHT22;59898;52.786;6.892;2023-02-22T16:07:54;10.00;99.90
52669;DHT22;59898;52.786;6.892;2023-02-22T16:11:36;10.00;99.90
52669;DHT22;59898;52.786;6.892;2023-02-22T16:14:59;9.90;99.90
52669;DHT22;59898;52.786;6.892;2023-02-22T16:18:26;9.90;99.90
52669;DHT22;59898;52.786;6.892;2023-02-22T16:21:57;9.90;99.90
52669;DHT22;59898;52.786;6.892;2023-02-22T16:25:25;9.90;99.90
52669;DHT22;59898;52.786;6.892;2023-02-22T16:29:08;9.90;99.90
52669;DHT22;59898;52.786;6.892;2023-02-22T16:32:28;9.90;99.90
52669;DHT22;59898;52.786;6.892;2023-02-22T16:35:49;9.80;99.90
52669;DHT22;59898;52.786;6.892;2023-02-22T16:39:21;9.90;99.90
52669;DHT22;59898;52.786;6.892;2023-02-22T16:42:42;9.90;99.90
52669;DHT22;59898;52.786;6.892;2023-02-22T16:46:04;9.90;99.90
52669;DHT22;59898;52.786;6.892;2023-02-22T16:49:26;9.90;99.90
52669;DHT22;59898;52.786;6.892;2023-02-22T16:52:47;9.90;99.90
52669;DHT22;59898;52.786;6.892;2023-02-22T16:56:09;9.90;99.90
52669;DHT22;59898;52.786;6.892;2023-02-22T16:59:35;9.90;99.90
52669;DHT22;59898;52.786;6.892;2023-02-22T17:02:58;9.90;99.90
52669;DHT22;59898;52.786;6.892;2023-02-22T17:06:19;9.90;99.90
52669;DHT22;59898;52.786;6.892;2023-02-22T17:09:40;9.90;99.90
52669;DHT22;59898;52.786;6.892;2023-02-22T17:13:02;9.90;99.90
52669;DHT22;59898;52.786;6.892;2023-02-22T17:16:23;9.90;99.90
52669;DHT22;59898;52.786;6.892;2023-02-22T17:19:43;9.90;99.90
52669;DHT22;59898;52.786;6.892;2023-02-22T17:23:07;9.90;99.90
52669;DHT22;59898;52.786;6.892;2023-02-22T17:26:28;9.90;99.90
52669;DHT22;59898;52.786;6.892;2023-02-22T17:29:48;9.90;99.90
52669;DHT22;59898;52.786;6.892;2023-02-22T17:33:14;9.90;99.90
52669;DHT22;59898;52.786;6.892;2023-02-22T17:36:35;9.90;99.90
52669;DHT22;59898;52.786;6.892;2023-02-22T17:39:56;9.50;99.90
52669;DHT22;59898;52.786;6.892;2023-02-22T17:43:17;9.90;99.90
52669;DHT22;59898;52.786;6.892;2023-02-22T17:46:38;9.90;99.90
52669;DHT22;59898;52.786;6.892;2023-02-22T17:50:00;9.90;99.90
52669;DHT22;59898;52.786;6.892;2023-02-22T17:53:20;9.90;99.90
52669;DHT22;59898;52.786;6.892;2023-02-22T17:56:43;9.90;99.90
52669;DHT22;59898;52.786;6.892;2023-02-22T18:00:06;9.80;99.90
52669;DHT22;59898;52.786;6.892;2023-02-22T18:03:34;9.80;99.90
52669;DHT22;59898;52.786;6.892;2023-02-22T18:06:58;9.70;99.90
52669;DHT22;59898;52.786;6.892;2023-02-22T18:10:19;9.70;99.90
52669;DHT22;59898;52.786;6.892;2023-02-22T18:13:40;9.70;99.90
52669;DHT22;59898;52.786;6.892;2023-02-22T18:17:01;9.70;99.90
52669;DHT22;59898;52.786;6.892;2023-02-22T18:20:23;9.70;99.90
52669;DHT22;59898;52.786;6.892;2023-02-22T18:24:03;9.70;99.90
52669;DHT22;59898;52.786;6.892;2023-02-22T18:27:24;9.60;99.90
52669;DHT22;59898;52.786;6.892;2023-02-22T18:30:45;9.60;99.90
52669;DHT22;59898;52.786;6.892;2023-02-22T18:34:07;9.50;99.90
52669;DHT22;59898;52.786;6.892;2023-02-22T18:37:28;9.50;99.90
52669;DHT22;59898;52.786;6.892;2023-02-22T18:41:10;9.50;99.90
52669;DHT22;59898;52.786;6.892;2023-02-22T18:44:31;9.60;99.90
52669;DHT22;59898;52.786;6.892;2023-02-22T18:47:52;9.60;99.90
52669;DHT22;59898;52.786;6.892;2023-02-22T18:51:15;9.60;99.90
52669;DHT22;59898;52.786;6.892;2023-02-22T18:54:42;9.50;99.90
52669;DHT22;59898;52.786;6.892;2023-02-22T18:58:03;9.60;99.90
52669;DHT22;59898;52.786;6.892;2023-02-22T19:01:24;9.60;99.90
52669;DHT22;59898;52.786;6.892;2023-02-22T19:04:48;9.60;99.90
52669;DHT22;59898;52.786;6.892;2023-02-22T19:08:09;9.60;99.90
52669;DHT22;59898;52.786;6.892;2023-02-22T19:11:30;9.60;99.90
52669;DHT22;59898;52.786;6.892;2023-02-22T19:14:51;9.60;99.90
52669;DHT22;59898;52.786;6.892;2023-02-22T19:18:12;9.60;99.90
52669;DHT22;59898;52.786;6.892;2023-02-22T19:21:33;9.60;99.90
52669;DHT22;59898;52.786;6.892;2023-02-22T19:24:53;9.60;99.90
52669;DHT22;59898;52.786;6.892;2023-02-22T19:28:14;9.60;99.90
52669;DHT22;59898;52.786;6.892;2023-02-22T19:31:35;9.60;99.90
52669;DHT22;59898;52.786;6.892;2023-02-22T19:34:56;9.60;99.90
52669;DHT22;59898;52.786;6.892;2023-02-22T19:38:21;9.50;99.90
52669;DHT22;59898;52.786;6.892;2023-02-22T19:41:42;9.50;99.90
52669;DHT22;59898;52.786;6.892;2023-02-22T19:45:03;9.50;99.90
52669;DHT22;59898;52.786;6.892;2023-02-22T19:48:24;9.50;99.90
52669;DHT22;59898;52.786;6.892;2023-02-22T19:51:44;9.40;99.90
52669;DHT22;59898;52.786;6.892;2023-02-22T19:55:06;9.40;99.90
52669;DHT22;59898;52.786;6.892;2023-02-22T19:58:32;9.40;99.90
52669;DHT22;59898;52.786;6.892;2023-02-22T20:01:56;9.40;99.90
52669;DHT22;59898;52.786;6.892;2023-02-22T20:05:16;9.40;99.90
52669;DHT22;59898;52.786;6.892;2023-02-22T20:08:38;9.40;99.90
52669;DHT22;59898;52.786;6.892;2023-02-22T20:12:04;9.40;99.90
52669;DHT22;59898;52.786;6.892;2023-02-22T20:15:25;9.40;99.90
52669;DHT22;59898;52.786;6.892;2023-02-22T20:18:48;9.30;99.90
52669;DHT22;59898;52.786;6.892;2023-02-22T20:22:08;9.30;99.90
52669;DHT22;59898;52.786;6.892;2023-02-22T20:25:30;9.30;99.90
52669;DHT22;59898;52.786;6.892;2023-02-22T20:28:51;9.30;99.90
52669;DHT22;59898;52.786;6.892;2023-02-22T20:32:12;9.30;99.90
52669;DHT22;59898;52.786;6.892;2023-02-22T20:35:34;9.30;99.90
52669;DHT22;59898;52.786;6.892;2023-02-22T20:38:57;9.30;99.90
52669;DHT22;59898;52.786;6.892;2023-02-22T20:42:17;9.20;99.90
52669;DHT22;59898;52.786;6.892;2023-02-22T20:45:38;9.20;99.90
52669;DHT22;59898;52.786;6.892;2023-02-22T20:49:00;9.20;99.90
52669;DHT22;59898;52.786;6.892;2023-02-22T20:52:22;9.20;99.90
52669;DHT22;59898;52.786;6.892;2023-02-22T20:55:50;9.10;99.90
52669;DHT22;59898;52.786;6.892;2023-02-22T20:59:14;9.10;99.90
52669;DHT22;59898;52.786;6.892;2023-02-22T21:02:37;9.10;99.90
52669;DHT22;59898;52.786;6.892;2023-02-22T21:05:58;9.10;99.90
52669;DHT22;59898;52.786;6.892;2023-02-22T21:09:20;9.00;99.90
52669;DHT22;59898;52.786;6.892;2023-02-22T21:12:41;9.00;99.90
52669;DHT22;59898;52.786;6.892;2023-02-22T21:16:02;9.00;99.90
52669;DHT22;59898;52.786;6.892;2023-02-22T21:19:23;8.90;99.90
52669;DHT22;59898;52.786;6.892;2023-02-22T21:22:46;8.90;99.90
52669;DHT22;59898;52.786;6.892;2023-02-22T21:26:14;8.90;99.90
52669;DHT22;59898;52.786;6.892;2023-02-22T21:29:35;8.90;99.90
52669;DHT22;59898;52.786;6.892;2023-02-22T21:32:56;8.90;99.90
52669;DHT22;59898;52.786;6.892;2023-02-22T21:36:18;8.80;99.90
52669;DHT22;59898;52.786;6.892;2023-02-22T21:39:39;8.80;99.90
52669;DHT22;59898;52.786;6.892;2023-02-22T21:42:59;8.70;99.90
52669;DHT22;59898;52.786;6.892;2023-02-22T21:46:21;8.60;99.90
52669;DHT22;59898;52.786;6.892;2023-02-22T21:49:42;8.60;99.90
52669;DHT22;59898;52.786;6.892;2023-02-22T21:53:03;8.60;99.90
52669;DHT22;59898;52.786;6.892;2023-02-22T21:56:25;8.50;99.90
52669;DHT22;59898;52.786;6.892;2023-02-22T21:59:49;8.50;99.90
52669;DHT22;59898;52.786;6.892;2023-02-22T22:03:12;8.50;99.90
52669;DHT22;59898;52.786;6.892;2023-02-22T22:06:39;8.40;99.90
52669;DHT22;59898;52.786;6.892;2023-02-22T22:10:00;8.40;99.90
52669;DHT22;59898;52.786;6.892;2023-02-22T22:13:23;8.40;99.90
52669;DHT22;59898;52.786;6.892;2023-02-22T22:16:49;8.40;99.90
52669;DHT22;59898;52.786;6.892;2023-02-22T22:20:11;8.40;99.90
52669;DHT22;59898;52.786;6.892;2023-02-22T22:23:36;8.30;99.90
52669;DHT22;59898;52.786;6.892;2023-02-22T22:26:58;8.30;99.90
52669;DHT22;59898;52.786;6.892;2023-02-22T22:30:23;8.30;99.90
52669;DHT22;59898;52.786;6.892;2023-02-22T22:33:44;8.30;99.90
52669;DHT22;59898;52.786;6.892;2023-02-22T22:37:04;8.30;99.90
52669;DHT22;59898;52.786;6.892;2023-02-22T22:40:26;8.30;99.90
52669;DHT22;59898;52.786;6.892;2023-02-22T22:43:47;8.30;99.90
52669;DHT22;59898;52.786;6.892;2023-02-22T22:47:08;8.30;99.90
52669;DHT22;59898;52.786;6.892;2023-02-22T22:50:31;8.30;99.90
52669;DHT22;59898;52.786;6.892;2023-02-22T22:53:53;8.20;99.90
52669;DHT22;59898;52.786;6.892;2023-02-22T22:57:14;8.20;99.90
52669;DHT22;59898;52.786;6.892;2023-02-22T23:00:36;8.20;99.90
52669;DHT22;59898;52.786;6.892;2023-02-22T23:04:01;8.20;99.90
52669;DHT22;59898;52.786;6.892;2023-02-22T23:07:22;8.10;99.90
52669;DHT22;59898;52.786;6.892;2023-02-22T23:10:43;8.10;99.90
52669;DHT22;59898;52.786;6.892;2023-02-22T23:14:04;8.10;99.90
52669;DHT22;59898;52.786;6.892;2023-02-22T23:17:24;8.10;99.90
52669;DHT22;59898;52.786;6.892;2023-02-22T23:21:00;8.00;99.90
52669;DHT22;59898;52.786;6.892;2023-02-22T23:24:25;8.00;99.90
52669;DHT22;59898;52.786;6.892;2023-02-22T23:27:47;8.10;99.90
52669;DHT22;59898;52.786;6.892;2023-02-22T23:31:10;8.10;99.90
52669;DHT22;59898;52.786;6.892;2023-02-22T23:34:34;8.10;99.90
52669;DHT22;59898;52.786;6.892;2023-02-22T23:37:55;8.10;99.90
52669;DHT22;59898;52.786;6.892;2023-02-22T23:41:18;8.00;99.90
52669;DHT22;59898;52.786;6.892;2023-02-22T23:44:38;8.00;99.90